Time;durP1;ratioP1;P1;durP2;ratioP2;P2;SDS_P1;SDS_P2;PMS_P1;PMS_P2;Temp;Humidity;BMP_temperature;BMP_pressure;BME280_temperature;BME280_humidity;BME280_pressure;Samples;Min_cycle;Max_cycle;Signal;HPM_P1;HPM_P2
2021/11/16 00:03:01;;;;;;;106.40;50.60;;;;;;;6.03;100.00;101983.73;5101296;57;1145231;-79
2021/11/16 00:08:09;;;;;;;110.77;50.60;;;;;;;6.04;100.00;101981.50;5101270;58;1145212;-80
2021/11/16 00:13:15;;;;;;;111.33;49.37;;;;;;;5.99;100.00;101975.09;5101118;58;1145227;-78
2021/11/16 00:18:26;;;;;;;113.47;48.03;;;;;;;6.00;100.00;101969.38;5080892;57;1145252;-80
2021/11/16 00:23:35;;;;;;;123.97;51.93;;;;;;;5.99;100.00;101969.84;5026907;58;1145273;-80
2021/11/16 00:28:36;;;;;;;125.07;55.65;;;;;;;6.02;100.00;101956.20;5026293;58;1145231;-76
2021/11/16 00:33:43;;;;;;;121.45;51.48;;;;;;;6.00;100.00;101957.11;5026609;58;1145297;-76
2021/11/16 00:38:49;;;;;;;115.67;49.60;;;;;;;5.96;100.00;101948.93;5026675;58;1145515;-77
2021/11/16 00:43:55;;;;;;;110.43;46.97;;;;;;;5.98;100.00;101961.55;5026768;58;1145510;-77
2021/11/16 00:49:00;;;;;;;117.90;50.53;;;;;;;6.02;100.00;101962.77;5026690;58;1145541;-76
2021/11/16 00:54:06;;;;;;;134.53;55.03;;;;;;;6.07;100.00;101956.91;5026546;58;1145254;-75
2021/11/16 00:59:12;;;;;;;133.53;55.17;;;;;;;6.08;100.00;101953.37;4987597;59;1145330;-74
2021/11/16 01:04:19;;;;;;;116.75;50.48;;;;;;;6.07;100.00;101956.91;4987480;59;1145445;-73
2021/11/16 01:09:25;;;;;;;113.37;49.07;;;;;;;6.08;100.00;101958.16;5026552;58;1145315;-75
2021/11/16 01:14:31;;;;;;;130.30;55.77;;;;;;;6.09;100.00;101948.06;5072201;57;1145302;-76
2021/11/16 01:19:38;;;;;;;156.77;60.70;;;;;;;6.14;100.00;101947.88;5153335;56;1145306;-74
2021/11/16 01:24:44;;;;;;;138.80;57.23;;;;;;;6.13;100.00;101948.33;5231533;56;1145259;-74
2021/11/16 01:29:51;;;;;;;130.77;50.87;;;;;;;6.15;100.00;101945.65;5230032;56;1145493;-73
2021/11/16 01:34:57;;;;;;;123.40;51.13;;;;;;;6.17;100.00;101944.69;5231436;56;1145378;-75
2021/11/16 01:40:05;;;;;;;129.23;54.23;;;;;;;6.20;100.00;101944.58;5231566;56;1145363;-77
2021/11/16 01:45:11;;;;;;;119.20;47.80;;;;;;;6.20;100.00;101930.59;5231199;56;1145764;-73
2021/11/16 01:50:21;;;;;;;126.07;50.00;;;;;;;6.16;100.00;101932.92;5231268;56;1141068;-75
2021/11/16 01:55:27;;;;;;;131.87;53.13;;;;;;;6.15;100.00;101932.52;5229707;56;1143331;-79
2021/11/16 02:00:41;;;;;;;128.93;52.20;;;;;;;6.14;100.00;101931.66;5209711;56;1143416;-77
2021/11/16 02:05:51;;;;;;;132.37;51.27;;;;;;;6.13;100.00;101929.94;5210258;56;1143172;-76
2021/11/16 02:10:58;;;;;;;128.63;53.70;;;;;;;6.17;100.00;101934.18;5210275;56;1143304;-77
2021/11/16 02:16:05;;;;;;;120.27;49.77;;;;;;;6.18;100.00;101937.20;5210315;56;1143275;-73
2021/11/16 02:21:11;;;;;;;121.57;48.73;;;;;;;6.21;100.00;101920.48;5165899;56;1143462;-76
2021/11/16 02:26:17;;;;;;;112.73;50.50;;;;;;;6.21;100.00;101913.91;5176667;56;1143430;-74
2021/11/16 02:31:23;;;;;;;134.25;53.90;;;;;;;6.23;100.00;101908.16;5186260;57;1142543;-81
2021/11/16 02:36:32;;;;;;;123.17;48.40;;;;;;;6.22;100.00;101913.86;5186318;57;1143338;-81
2021/11/16 02:41:41;;;;;;;120.23;49.80;;;;;;;6.21;100.00;101916.09;5186346;57;1143621;-77
2021/11/16 02:46:49;;;;;;;109.33;49.87;;;;;;;6.19;100.00;101902.60;5186323;57;1143185;-78
2021/11/16 02:51:57;;;;;;;109.17;46.43;;;;;;;6.20;100.00;101895.98;5186371;57;1141171;-79
2021/11/16 02:57:06;;;;;;;124.22;52.83;;;;;;;6.24;100.00;101891.48;5186311;57;1141100;-81
2021/11/16 03:02:12;;;;;;;125.13;54.80;;;;;;;6.22;100.00;101888.91;5186495;56;1145221;-78
2021/11/16 03:07:45;;;;;;;117.33;49.42;;;;;;;6.20;100.00;101881.98;5186378;56;1143109;-77
2021/11/16 03:12:45;;;;;;;96.87;45.03;;;;;;;6.19;100.00;101873.70;5185382;56;1145302;-77
2021/11/16 03:17:51;;;;;;;97.83;46.20;;;;;;;6.20;100.00;101880.22;5186498;56;1143385;-77
2021/11/16 03:23:08;;;;;;;94.30;44.77;;;;;;;6.19;100.00;101880.27;5208176;56;1143582;-78
2021/11/16 03:28:09;;;;;;;96.00;44.90;;;;;;;6.17;100.00;101880.78;5218595;56;1143125;-81
2021/11/16 03:33:15;;;;;;;99.60;45.67;;;;;;;6.17;100.00;101889.52;5219305;56;1143190;-81
2021/11/16 03:38:23;;;;;;;107.77;47.60;;;;;;;6.16;100.00;101883.01;5219193;56;1143195;-75
2021/11/16 03:43:32;;;;;;;109.20;46.93;;;;;;;6.11;100.00;101879.23;5219037;56;1145285;-76
2021/11/16 03:48:39;;;;;;;98.97;45.53;;;;;;;6.09;100.00;101875.84;5219115;56;1145591;-80
2021/11/16 03:53:45;;;;;;;103.90;49.23;;;;;;;6.13;100.00;101885.29;5219237;56;1143657;-77
2021/11/16 03:58:51;;;;;;;105.47;50.03;;;;;;;6.13;100.00;101881.34;5153768;56;1145776;-78
2021/11/16 04:04:00;;;;;;;108.60;45.83;;;;;;;6.13;100.00;101884.43;5133285;56;1145280;-79
2021/11/16 04:09:05;;;;;;;92.90;43.63;;;;;;;6.14;100.00;101871.24;5133187;56;1145279;-80
2021/11/16 04:14:12;;;;;;;91.77;45.10;;;;;;;6.14;100.00;101876.95;5123641;56;1143199;-80
2021/11/16 04:19:18;;;;;;;99.70;47.80;;;;;;;6.19;100.00;101867.14;5121077;56;1143298;-78
2021/11/16 04:24:24;;;;;;;97.10;46.33;;;;;;;6.16;100.00;101865.94;5102248;56;1143613;-76
2021/11/16 04:29:30;;;;;;;101.17;46.00;;;;;;;6.15;100.00;101857.20;5097418;57;1141104;-79
2021/11/16 04:34:36;;;;;;;90.37;43.40;;;;;;;6.18;100.00;101848.34;5096767;57;1145249;-79
2021/11/16 04:39:42;;;;;;;101.50;47.63;;;;;;;6.18;100.00;101850.98;5096932;57;1143112;-77
2021/11/16 04:44:49;;;;;;;97.87;46.07;;;;;;;6.17;100.00;101852.75;5109040;57;1145298;-79
2021/11/16 04:50:07;;;;;;;100.93;45.13;;;;;;;6.19;100.00;101847.44;5109113;57;1143266;-80
2021/11/16 04:55:26;;;;;;;93.10;45.70;;;;;;;6.22;100.00;101848.64;5108153;57;1145305;-77
2021/11/16 05:05:33;;;;;;;101.30;46.47;;;;;;;6.20;100.00;101847.37;5108760;57;1145289;-77
2021/11/16 05:10:39;;;;;;;99.13;46.10;;;;;;;6.18;100.00;101839.16;5105491;57;1145336;-79
2021/11/16 05:15:44;;;;;;;95.43;46.90;;;;;;;6.17;100.00;101834.36;5099908;57;1143543;-79
2021/11/16 05:20:50;;;;;;;96.53;46.07;;;;;;;6.19;100.00;101840.41;5080837;58;1143199;-81
2021/11/16 05:25:56;;;;;;;93.20;44.70;;;;;;;6.16;100.00;101826.53;4986335;58;1141190;-78
2021/11/16 05:31:02;;;;;;;90.43;42.60;;;;;;;6.16;100.00;101824.77;4982362;58;1141126;-81
2021/11/16 05:36:08;;;;;;;100.70;46.30;;;;;;;6.21;100.00;101835.11;4995550;57;1141700;-77
2021/11/16 05:41:14;;;;;;;102.40;45.73;;;;;;;6.18;100.00;101835.22;4983751;58;1143209;-79
2021/11/16 05:46:22;;;;;;;91.40;45.20;;;;;;;6.16;100.00;101827.84;4978823;58;1141179;-77
2021/11/16 05:51:30;;;;;;;92.80;42.67;;;;;;;6.17;100.00;101830.88;4970969;58;1141120;-79
2021/11/16 05:56:38;;;;;;;88.07;45.80;;;;;;;6.18;100.00;101825.56;4901210;59;1141459;-77
2021/11/16 06:01:44;;;;;;;94.27;45.37;;;;;;;6.15;100.00;101824.36;4876072;60;1141097;-81
2021/11/16 06:06:49;;;;;;;86.53;44.83;;;;;;;6.10;100.00;101833.36;5005339;58;1139293;-77
2021/11/16 06:11:57;;;;;;;88.97;45.13;;;;;;;6.11;100.00;101833.27;5007026;58;1141172;-76
2021/11/16 06:17:03;;;;;;;102.63;50.37;;;;;;;6.16;100.00;101833.10;4937124;59;1141163;-79
2021/11/16 06:22:10;;;;;;;95.23;46.83;;;;;;;6.15;100.00;101828.30;4906469;60;1143426;-76
2021/11/16 06:27:16;;;;;;;96.47;45.50;;;;;;;6.10;100.00;101821.08;4907247;59;1139238;-79
2021/11/16 06:32:21;;;;;;;100.67;49.50;;;;;;;6.10;100.00;101824.16;4907289;59;1141314;-77
2021/11/16 06:37:27;;;;;;;91.47;45.70;;;;;;;6.10;100.00;101816.28;4907105;59;1143512;-76
2021/11/16 06:42:33;;;;;;;112.43;52.47;;;;;;;6.10;100.00;101812.34;4906903;59;1141127;-78
2021/11/16 06:47:39;;;;;;;91.43;46.40;;;;;;;6.06;100.00;101817.30;4907284;59;1141355;-78
2021/11/16 06:52:46;;;;;;;94.28;45.63;;;;;;;6.08;100.00;101820.73;4907068;59;1141123;-76
2021/11/16 06:57:51;;;;;;;101.83;47.93;;;;;;;6.11;100.00;101816.68;4907113;59;1139560;-76
2021/11/16 07:02:59;;;;;;;90.20;42.57;;;;;;;6.13;100.00;101826.64;5000452;59;21107;-79
2021/11/16 07:08:05;;;;;;;98.53;45.03;;;;;;;6.13;100.00;101823.56;4981597;59;1137079;-78
2021/11/16 07:13:11;;;;;;;89.77;44.30;;;;;;;6.17;100.00;101831.73;4981639;59;1143189;-79
2021/11/16 07:18:16;;;;;;;101.87;50.00;;;;;;;6.17;100.00;101828.25;4983264;59;1143192;-78
2021/11/16 07:23:22;;;;;;;102.58;45.75;;;;;;;6.16;100.00;101830.02;4870234;59;1145457;-78
2021/11/16 07:28:28;;;;;;;87.50;44.20;;;;;;;6.13;100.00;101825.33;4958652;58;1143182;-76
2021/11/16 07:33:37;;;;;;;95.07;42.50;;;;;;;6.12;100.00;101817.91;4811970;59;1143096;-78
2021/11/16 07:38:41;;;;;;;92.93;48.00;;;;;;;6.12;100.00;101820.98;4827397;60;1143258;-82
2021/11/16 07:43:49;;;;;;;101.23;49.30;;;;;;;6.11;100.00;101825.38;4854143;60;1143169;-77
2021/11/16 07:48:55;;;;;;;98.00;47.47;;;;;;;6.10;100.00;101820.22;4989154;58;1143259;-78
2021/11/16 07:54:01;;;;;;;90.50;46.50;;;;;;;6.12;100.00;101824.93;5079431;56;1143383;-85
2021/11/16 07:59:09;;;;;;;89.67;45.73;;;;;;;6.16;100.00;101833.10;5207971;56;1143226;-81
2021/11/16 08:09:38;;;;;;;102.70;49.77;;;;;;;6.21;100.00;101814.09;5108478;57;1143512;-83
2021/11/16 08:14:35;;;;;;;95.27;47.33;;;;;;;6.24;100.00;101819.23;5074878;58;1143222;-77
2021/11/16 08:19:42;;;;;;;97.53;45.60;;;;;;;6.24;100.00;101811.34;5093864;57;1143683;-76
2021/11/16 08:24:49;;;;;;;106.73;49.03;;;;;;;6.27;100.00;101811.20;5113775;57;1143418;-77
2021/11/16 08:30:08;;;;;;;108.70;49.23;;;;;;;6.25;100.00;101809.98;5067460;58;1145535;-78
2021/11/16 08:35:21;;;;;;;99.20;45.77;;;;;;;6.13;100.00;101797.30;4934673;59;1143336;-77
2021/11/16 08:40:32;;;;;;;91.53;41.43;;;;;;;6.13;100.00;101797.30;5150932;57;1143296;-79
2021/11/16 08:45:43;;;;;;;108.93;49.00;;;;;;;6.15;100.00;101793.30;5064914;58;1143341;-77
2021/11/16 08:50:51;;;;;;;149.83;61.03;;;;;;;6.13;100.00;101790.73;5140530;57;1145342;-76
2021/11/16 08:55:58;;;;;;;109.07;46.05;;;;;;;6.12;100.00;101791.64;5069868;58;1143229;-78
2021/11/16 09:01:07;;;;;;;102.00;44.85;;;;;;;6.16;100.00;101793.70;5094943;58;1145303;-76
2021/11/16 09:06:28;;;;;;;146.47;54.60;;;;;;;6.14;100.00;101790.27;5096677;58;1145235;-89
2021/11/16 09:11:32;;;;;;;90.37;39.33;;;;;;;6.15;100.00;101786.73;5072887;58;1145232;-89
2021/11/16 09:16:40;;;;;;;108.57;44.33;;;;;;;6.15;100.00;101792.84;5046173;57;1143254;-92
2021/11/16 09:21:47;;;;;;;97.23;42.23;;;;;;;6.16;100.00;101776.63;5052880;57;1145243;-92
2021/11/16 09:26:59;;;;;;;92.50;39.90;;;;;;;6.13;100.00;101777.59;5040836;58;1141038;-93
2021/11/16 09:32:07;;;;;;;88.63;35.30;;;;;;;6.09;100.00;101776.48;4996619;57;1141107;-91
2021/11/16 09:37:21;;;;;;;121.60;47.03;;;;;;;6.04;100.00;101768.77;5005309;59;1140893;-91
2021/11/16 09:42:35;;;;;;;;;;;;;;;6.02;100.00;101756.61;5029165;59;1143155;-93
2021/11/16 09:47:43;;;;;;;96.90;44.73;;;;;;;6.03;100.00;101757.02;5028660;59;974089;-88
2021/11/16 09:52:53;;;;;;;114.30;46.93;;;;;;;6.00;100.00;101750.11;5038598;57;1138921;-92
2021/11/16 09:58:04;;;;;;;99.13;44.33;;;;;;;6.05;100.00;101734.17;5089702;57;1142506;-93
2021/11/16 10:03:21;;;;;;;88.82;40.92;;;;;;;6.06;100.00;101731.50;5070255;57;1140998;-96
2021/11/16 10:08:29;;;;;;;84.57;35.53;;;;;;;6.06;100.00;101730.64;4968089;58;1139023;-83
2021/11/16 10:13:35;;;;;;;119.83;49.70;;;;;;;6.03;100.00;101730.75;4910491;59;1139010;-86
2021/11/16 10:18:41;;;;;;;107.97;46.40;;;;;;;5.99;100.00;101730.02;4915644;60;21191;-86
2021/11/16 10:23:50;;;;;;;117.90;50.57;;;;;;;5.99;100.00;101724.76;4936229;57;1140944;-84
2021/11/16 10:28:56;;;;;;;112.10;48.07;;;;;;;5.98;100.00;101718.66;5054849;57;1143163;-85
2021/11/16 10:34:02;;;;;;;112.70;45.30;;;;;;;5.98;100.00;101720.42;5103239;57;1145183;-90
2021/11/16 10:39:20;;;;;;;;;;;;;;;;;;;;;
2021/11/16 10:44:23;;;;;;;123.20;55.40;;;;;;;6.05;100.00;101702.20;5037060;57;1145374;-91
2021/11/16 10:49:30;;;;;;;135.53;57.27;;;;;;;6.02;100.00;101700.16;5060167;57;1145098;-87
2021/11/16 10:54:39;;;;;;;144.35;54.53;;;;;;;5.97;100.00;101692.45;5055768;57;1145141;-88
2021/11/16 10:59:45;;;;;;;168.87;65.03;;;;;;;6.02;100.00;101691.81;5024758;57;1144476;-88
2021/11/16 11:04:51;;;;;;;132.90;58.90;;;;;;;6.06;100.00;101687.30;5097375;56;1145147;-87
2021/11/16 11:10:00;;;;;;;152.17;62.83;;;;;;;6.11;100.00;101687.50;5080212;57;1145155;-91
2021/11/16 11:15:08;;;;;;;129.07;57.03;;;;;;;6.12;100.00;101683.09;4994414;59;1145190;-85
2021/11/16 11:20:20;;;;;;;118.80;53.37;;;;;;;6.07;100.00;101679.37;4992289;58;1143081;-87
2021/11/16 11:30:37;;;;;;;113.23;51.40;;;;;;;6.09;100.00;101670.12;4994959;58;1144619;-90
2021/11/16 11:35:43;;;;;;;119.97;53.30;;;;;;;6.09;100.00;101667.03;4994368;59;1145288;-87
2021/11/16 11:40:48;;;;;;;135.07;57.07;;;;;;;6.07;100.00;101660.13;4993455;59;1145426;-89
2021/11/16 11:45:55;;;;;;;105.33;42.27;;;;;;;6.07;100.00;101651.80;4993899;57;1145234;-88
2021/11/16 11:51:15;;;;;;;92.27;41.00;;;;;;;6.04;100.00;101653.68;5058981;56;1145032;-88
2021/11/16 11:56:22;;;;;;;128.10;58.07;;;;;;;5.95;100.00;101643.11;5012870;58;1142722;-89
2021/11/16 12:01:30;;;;;;;188.90;74.63;;;;;;;5.96;100.00;101644.78;5051558;57;1145179;-90
2021/11/16 12:06:35;;;;;;;157.93;63.90;;;;;;;6.05;100.00;101651.00;5092663;57;1145467;-88
2021/11/16 12:11:41;;;;;;;157.55;62.80;;;;;;;6.08;100.00;101650.02;5084434;56;1145173;-86
2021/11/16 12:17:07;;;;;;;131.23;53.00;;;;;;;6.09;100.00;101639.91;4981505;59;1145269;-86
2021/11/16 12:22:24;;;;;;;101.97;42.63;;;;;;;6.13;100.00;101634.45;4981002;59;1145061;-88
2021/11/16 12:27:34;;;;;;;119.10;50.87;;;;;;;6.06;100.00;101633.01;4908589;59;1143163;-87
2021/11/16 12:32:49;;;;;;;109.90;46.37;;;;;;;6.08;100.00;101623.76;5042498;58;1143092;-93
2021/11/16 12:37:59;;;;;;;171.23;63.57;;;;;;;6.13;100.00;101625.72;5055494;58;1143188;-90
2021/11/16 12:43:18;;;;;;;138.80;60.78;;;;;;;6.05;100.00;101629.98;5054876;58;1143195;-84
2021/11/16 12:48:43;;;;;;;158.23;69.80;;;;;;;6.05;100.00;101622.11;5055266;58;1141084;-91
2021/11/16 12:54:02;;;;;;;117.10;50.60;;;;;;;6.15;100.00;101621.26;4961836;59;1143114;-89
2021/11/16 12:59:11;;;;;;;131.87;57.67;;;;;;;6.14;100.00;101613.84;5007275;58;1140300;-90
2021/11/16 13:04:40;;;;;;;155.93;63.87;;;;;;;6.06;100.00;101605.44;5052118;58;1144444;-86
2021/11/16 13:09:56;;;;;;;154.77;65.70;;;;;;;6.02;100.00;101597.73;5142211;57;1143010;-88
2021/11/16 13:15:22;;;;;;;108.70;46.20;;;;;;;6.02;100.00;101596.42;5150142;57;1145159;-87
2021/11/16 13:20:37;;;;;;;111.90;48.23;;;;;;;6.02;100.00;101588.09;5133328;57;1145239;-91
2021/11/16 13:25:49;;;;;;;127.50;53.50;;;;;;;6.05;100.00;101576.16;5123818;56;1145199;-86
2021/11/16 13:31:14;;;;;;;118.13;49.80;;;;;;;6.03;100.00;101572.73;5064982;57;1144648;-88
2021/11/16 13:36:23;;;;;;;162.63;65.37;;;;;;;6.04;100.00;101567.88;4869913;59;1145249;-87
2021/11/16 13:41:53;;;;;;;135.83;60.33;;;;;;;6.04;100.00;101565.25;4874535;59;1144666;-86
2021/11/16 13:47:26;;;;;;;147.10;57.27;;;;;;;6.00;100.00;101553.16;4884706;60;1145244;-88
2021/11/16 13:52:37;;;;;;;127.00;55.93;;;;;;;6.00;100.00;101550.53;4909019;58;1145170;-87
2021/11/16 13:57:50;;;;;;;140.70;63.05;;;;;;;5.95;100.00;101548.13;4997967;57;1143077;-88
2021/11/16 14:03:07;;;;;;;113.60;52.30;;;;;;;5.96;100.00;101539.30;5005103;58;1143239;-88
2021/11/16 14:08:17;;;;;;;131.57;55.10;;;;;;;6.00;100.00;101542.66;5004991;58;1143170;-83
2021/11/16 14:13:26;;;;;;;123.80;51.87;;;;;;;5.95;100.00;101540.25;5008523;58;1142988;-90
2021/11/16 14:18:32;;;;;;;104.93;42.43;;;;;;;5.96;100.00;101538.44;4993198;58;1142518;-91
2021/11/16 14:23:43;;;;;;;113.47;46.63;;;;;;;5.91;100.00;101539.97;5010410;58;1143316;-92
2021/11/16 14:28:49;;;;;;;122.47;49.30;;;;;;;5.93;100.00;101531.58;5010220;58;1143106;-88
2021/11/16 14:34:00;;;;;;;114.90;47.60;;;;;;;5.88;100.00;101518.20;5001648;58;1141058;-90
2021/11/16 14:39:13;;;;;;;119.87;51.97;;;;;;;5.87;100.00;101519.13;5013961;58;1143152;-88
2021/11/16 14:44:29;;;;;;;165.15;80.03;;;;;;;5.87;100.00;101522.59;5009069;58;1143230;-88
2021/11/16 14:54:56;;;;;;;105.57;43.20;;;;;;;5.90;100.00;101522.97;5019595;58;1143012;-89
2021/11/16 15:00:20;;;;;;;108.53;44.00;;;;;;;5.91;100.00;101520.28;5011709;58;1145114;-88
2021/11/16 15:05:27;;;;;;;145.07;57.77;;;;;;;5.92;100.00;101524.61;5008576;58;1145243;-88
2021/11/16 15:10:35;;;;;;;316.83;154.20;;;;;;;5.94;100.00;101510.97;5011902;58;1145148;-88
2021/11/16 15:15:42;;;;;;;184.77;73.53;;;;;;;5.89;100.00;101514.23;5014910;58;1147308;-89
2021/11/16 15:21:01;;;;;;;168.63;71.43;;;;;;;5.87;100.00;101521.28;5008293;58;1143302;-88
2021/11/16 15:26:07;;;;;;;150.53;69.20;;;;;;;5.90;100.00;101529.08;5023079;58;1145198;-89
2021/11/16 15:31:15;;;;;;;141.57;54.53;;;;;;;5.94;100.00;101513.59;4988722;58;1145434;-88
2021/11/16 15:36:29;;;;;;;142.90;52.97;;;;;;;5.95;100.00;101522.33;4881322;59;1145334;-89
2021/11/16 15:41:42;;;;;;;124.35;49.25;;;;;;;5.92;100.00;101515.88;4940342;58;1145232;-88
2021/11/16 15:57:38;;;;;;;127.23;48.03;;;;;;;5.95;100.00;101537.63;5120974;56;1145232;-78
2021/11/16 16:02:52;;;;;;;136.00;53.43;;;;;;;6.00;100.00;101534.31;5104315;56;1145197;-78
2021/11/16 16:08:10;;;;;;;130.80;52.73;;;;;;;5.99;100.00;101522.11;5082523;56;1143080;-78
2021/11/16 16:13:17;;;;;;;139.03;51.33;;;;;;;6.00;100.00;101517.25;5089857;56;1143328;-80
2021/11/16 16:18:29;;;;;;;133.17;52.73;;;;;;;6.04;100.00;101509.25;5118618;56;1143166;-79
2021/11/16 16:23:35;;;;;;;152.37;69.70;;;;;;;6.09;100.00;101505.98;5088735;56;1143204;-77
2021/11/16 16:28:48;;;;;;;154.57;61.50;;;;;;;6.11;100.00;101502.34;5090292;56;1143106;-78
2021/11/16 16:33:54;;;;;;;180.13;79.23;;;;;;;6.11;100.00;101492.32;5077874;56;1143577;-81
2021/11/16 16:39:01;;;;;;;132.50;55.50;;;;;;;6.14;100.00;101484.28;5084365;56;1143151;-79
2021/11/16 16:44:11;;;;;;;118.27;48.50;;;;;;;6.20;100.00;101474.83;5099159;56;1143364;-79
2021/11/16 16:49:17;;;;;;;112.97;43.75;;;;;;;6.15;100.00;101460.58;5069020;56;1143425;-75
2021/11/16 16:54:25;;;;;;;134.03;50.00;;;;;;;6.07;100.00;101452.66;5077179;56;1141076;-76
2021/11/16 16:59:31;;;;;;;107.93;48.30;;;;;;;6.07;100.00;101444.33;5090701;56;1143152;-80
2021/11/16 17:04:48;;;;;;;105.50;44.63;;;;;;;6.13;100.00;101448.43;5093708;56;1143337;-78
2021/11/16 17:09:47;;;;;;;112.63;43.87;;;;;;;6.16;100.00;101438.66;5085447;57;1143398;-79
2021/11/16 17:14:54;;;;;;;129.60;49.63;;;;;;;6.16;100.00;101420.73;5045258;58;1141108;-80
2021/11/16 17:20:01;;;;;;;115.17;46.67;;;;;;;6.15;100.00;101417.24;5078828;56;1141060;-77
2021/11/16 17:25:08;;;;;;;131.77;52.20;;;;;;;6.19;100.00;101415.34;5052554;57;1145509;-80
2021/11/16 17:30:14;;;;;;;136.03;54.93;;;;;;;6.21;100.00;101408.25;5045281;58;1145205;-76
2021/11/16 17:35:20;;;;;;;127.20;52.67;;;;;;;6.20;100.00;101408.70;5063171;58;1145179;-80
2021/11/16 17:40:26;;;;;;;123.17;45.80;;;;;;;6.20;100.00;101413.96;5109705;56;1145242;-79
2021/11/16 17:45:31;;;;;;;113.43;46.67;;;;;;;6.19;100.00;101411.41;5113080;57;1145064;-78
2021/11/16 17:50:38;;;;;;;123.17;52.37;;;;;;;6.22;100.00;101400.30;5130537;56;1145193;-79
2021/11/16 17:55:44;;;;;;;108.67;45.80;;;;;;;6.22;100.00;101401.61;5093178;56;1145332;-80
2021/11/16 18:00:50;;;;;;;126.53;49.30;;;;;;;6.20;100.00;101393.41;5229016;56;1143349;-77
2021/11/16 18:06:05;;;;;;;112.83;46.60;;;;;;;6.19;100.00;101396.49;5118193;56;1145200;-76
2021/11/16 18:11:02;;;;;;;118.57;49.20;;;;;;;6.19;100.00;101397.81;4981001;58;1145489;-77
2021/11/16 18:16:08;;;;;;;167.47;70.63;;;;;;;6.20;100.00;101390.32;4982636;58;1145237;-78
2021/11/16 18:21:17;;;;;;;156.07;65.87;;;;;;;6.21;100.00;101383.30;5098099;56;1145227;-78
2021/11/16 18:26:27;;;;;;;148.77;63.30;;;;;;;6.21;100.00;101379.36;4985118;58;1145227;-79
2021/11/16 18:31:33;;;;;;;167.33;69.70;;;;;;;6.21;100.00;101380.20;4985091;58;1145298;-79
2021/11/16 18:36:46;;;;;;;120.77;53.80;;;;;;;6.23;100.00;101369.64;5088568;57;1145340;-79
2021/11/16 18:41:58;;;;;;;125.17;52.90;;;;;;;6.18;100.00;101365.89;5096602;56;1145205;-78
2021/11/16 18:47:02;;;;;;;112.33;51.10;;;;;;;6.15;100.00;101362.55;5156099;57;1145248;-81
2021/11/16 18:52:01;;;;;;;130.90;55.87;;;;;;;6.17;100.00;101360.71;5069800;56;1145172;-76
2021/11/16 18:57:12;;;;;;;137.60;57.23;;;;;;;6.16;100.00;101360.31;5091042;56;1145319;-75
2021/11/16 19:02:19;;;;;;;118.20;51.60;;;;;;;6.15;100.00;101353.36;5081349;56;1143117;-79
2021/11/16 19:07:25;;;;;;;123.70;51.67;;;;;;;6.15;100.00;101341.08;5080012;56;1145207;-78
2021/11/16 19:12:31;;;;;;;119.67;52.13;;;;;;;6.18;100.00;101347.52;5100770;56;1145156;-80
2021/11/16 19:17:38;;;;;;;136.40;59.57;;;;;;;6.17;100.00;101353.69;5093482;56;1145144;-77
2021/11/16 19:22:50;;;;;;;138.07;58.40;;;;;;;6.16;100.00;101349.81;5045434;58;1145247;-77
2021/11/16 19:33:04;;;;;;;133.35;57.53;;;;;;;6.20;100.00;101364.05;5045497;58;1145282;-77
2021/11/16 19:38:10;;;;;;;126.00;53.33;;;;;;;6.22;100.00;101366.16;5077542;56;1145291;-80
2021/11/16 19:43:18;;;;;;;124.20;51.37;;;;;;;6.17;100.00;101365.50;5112949;56;1145177;-79
2021/11/16 19:48:23;;;;;;;122.73;50.83;;;;;;;6.12;100.00;101359.59;5091848;56;1145251;-79
2021/11/16 19:53:29;;;;;;;115.13;52.70;;;;;;;6.16;100.00;101353.30;5102926;56;1145194;-76
2021/11/16 19:58:36;;;;;;;137.17;57.20;;;;;;;6.20;100.00;101355.33;5109618;56;1145253;-79
2021/11/16 20:03:42;;;;;;;140.33;59.17;;;;;;;6.21;100.00;101359.20;5097052;56;1145253;-78
2021/11/16 20:08:49;;;;;;;135.70;57.53;;;;;;;6.25;100.00;101352.03;5129258;56;1145426;-78
2021/11/16 20:14:04;;;;;;;131.63;56.30;;;;;;;6.29;100.00;101347.00;5094877;56;1145195;-78
2021/11/16 20:19:05;;;;;;;171.57;72.20;;;;;;;6.32;100.00;101341.61;5118282;56;1143061;-79
2021/11/16 20:24:11;;;;;;;152.73;63.17;;;;;;;6.30;100.00;101338.20;5109154;56;1143054;-80
2021/11/16 20:29:24;;;;;;;124.27;52.03;;;;;;;6.27;100.00;101347.53;5109424;56;1143332;-77
2021/11/16 20:34:28;;;;;;;134.27;52.37;;;;;;;6.24;100.00;101349.02;5107736;56;1143106;-76
2021/11/16 21:00:58;;;;;;;137.63;58.70;;;;;;;6.15;100.00;101327.95;5090351;57;1145240;-77
2021/11/16 21:06:05;;;;;;;146.40;59.93;;;;;;;6.09;100.00;101316.43;5000514;57;1145482;-78
2021/11/16 21:11:11;;;;;;;130.33;52.57;;;;;;;6.07;100.00;101313.48;4995663;57;1145304;-75
2021/11/16 21:16:17;;;;;;;139.43;54.17;;;;;;;6.04;100.00;101313.16;5030297;57;1145448;-76
2021/11/16 21:21:24;;;;;;;133.30;51.93;;;;;;;6.07;100.00;101318.73;5042253;58;1145143;-75
2021/11/16 21:26:30;;;;;;;135.67;56.17;;;;;;;6.06;100.00;101312.63;5041895;57;1145223;-77
2021/11/16 21:31:36;;;;;;;129.83;50.50;;;;;;;6.03;100.00;101306.20;4994864;57;1145206;-78
2021/11/16 21:36:45;;;;;;;160.10;58.57;;;;;;;6.02;100.00;101309.74;4961160;58;1145303;-76
2021/11/16 21:41:51;;;;;;;131.97;54.40;;;;;;;6.03;100.00;101298.78;4961929;58;1145249;-76
2021/11/16 21:46:58;;;;;;;149.37;58.73;;;;;;;6.09;100.00;101298.52;4961919;58;1145258;-76
2021/11/16 21:52:06;;;;;;;149.23;56.10;;;;;;;6.09;100.00;101290.63;4964778;58;1145268;-75
2021/11/16 21:57:12;;;;;;;138.90;53.40;;;;;;;6.03;100.00;101284.34;5044779;57;1145297;-76
2021/11/16 22:02:18;;;;;;;124.97;50.17;;;;;;;5.99;100.00;101280.53;5247768;56;1145170;-78
2021/11/16 22:07:45;;;;;;;128.07;53.50;;;;;;;5.99;100.00;101277.06;5207986;56;1145387;-78
2021/11/16 22:12:34;;;;;;;141.10;55.37;;;;;;;5.98;100.00;101280.14;5184524;56;1145666;-76
2021/11/16 22:17:41;;;;;;;138.23;54.03;;;;;;;6.03;100.00;101277.77;5189192;56;1143640;-77
2021/11/16 22:22:46;;;;;;;133.83;51.03;;;;;;;6.02;100.00;101273.45;5164172;56;1145231;-78
2021/11/16 22:27:52;;;;;;;133.80;53.40;;;;;;;6.07;100.00;101277.57;5163554;56;1145253;-75
2021/11/16 22:33:02;;;;;;;139.57;50.97;;;;;;;6.07;100.00;101278.03;5164007;56;1145163;-76
2021/11/16 22:38:06;;;;;;;123.00;49.33;;;;;;;6.03;100.00;101273.84;5164114;56;1145170;-76
2021/11/16 22:43:13;;;;;;;132.80;51.67;;;;;;;6.00;100.00;101270.89;5164034;56;1145449;-79
2021/11/16 22:48:18;;;;;;;140.27;55.00;;;;;;;5.95;100.00;101261.94;5164047;56;1145233;-78
2021/11/16 22:53:24;;;;;;;136.23;54.70;;;;;;;5.94;100.00;101256.75;5164137;56;1145199;-79
2021/11/16 22:58:30;;;;;;;149.90;53.67;;;;;;;5.87;100.00;101249.58;5181978;56;1145314;-77
